sensor_id;sensor_type;location;lat;lon;timestamp;P1;durP1;ratioP1;P2;durP2;ratioP2
53503;SDS011;39387;50.998;22.340;2022-08-02T00:02:18;8.00;;;6.45;;
53503;SDS011;39387;50.998;22.340;2022-08-02T00:04:45;8.07;;;6.32;;
53503;SDS011;39387;50.998;22.340;2022-08-02T00:07:13;8.75;;;6.93;;
53503;SDS011;39387;50.998;22.340;2022-08-02T00:09:40;7.55;;;6.65;;
53503;SDS011;39387;50.998;22.340;2022-08-02T00:12:08;7.47;;;6.45;;
53503;SDS011;39387;50.998;22.340;2022-08-02T00:14:37;8.45;;;6.72;;
53503;SDS011;39387;50.998;22.340;2022-08-02T00:17:04;7.60;;;6.70;;
53503;SDS011;39387;50.998;22.340;2022-08-02T00:19:32;7.53;;;6.72;;
53503;SDS011;39387;50.998;22.340;2022-08-02T00:21:59;9.05;;;6.78;;
53503;SDS011;39387;50.998;22.340;2022-08-02T00:24:27;8.38;;;6.65;;
53503;SDS011;39387;50.998;22.340;2022-08-02T00:26:54;7.13;;;6.20;;
53503;SDS011;39387;50.998;22.340;2022-08-02T00:29:21;7.78;;;6.45;;
53503;SDS011;39387;50.998;22.340;2022-08-02T00:31:50;7.68;;;6.25;;
53503;SDS011;39387;50.998;22.340;2022-08-02T00:34:17;8.80;;;6.47;;
53503;SDS011;39387;50.998;22.340;2022-08-02T00:36:45;9.02;;;7.22;;
53503;SDS011;39387;50.998;22.340;2022-08-02T00:39:12;8.40;;;7.03;;
53503;SDS011;39387;50.998;22.340;2022-08-02T00:41:43;8.23;;;7.07;;
53503;SDS011;39387;50.998;22.340;2022-08-02T00:44:13;8.95;;;7.32;;
53503;SDS011;39387;50.998;22.340;2022-08-02T00:46:40;8.18;;;7.05;;
53503;SDS011;39387;50.998;22.340;2022-08-02T00:49:09;8.90;;;6.90;;
53503;SDS011;39387;50.998;22.340;2022-08-02T00:51:38;8.93;;;6.97;;
53503;SDS011;39387;50.998;22.340;2022-08-02T00:54:05;8.27;;;6.63;;
53503;SDS011;39387;50.998;22.340;2022-08-02T00:56:33;9.55;;;7.25;;
53503;SDS011;39387;50.998;22.340;2022-08-02T00:59:01;9.00;;;7.43;;
53503;SDS011;39387;50.998;22.340;2022-08-02T01:01:29;9.65;;;7.40;;
53503;SDS011;39387;50.998;22.340;2022-08-02T01:04:05;9.05;;;7.70;;
53503;SDS011;39387;50.998;22.340;2022-08-02T01:06:34;9.75;;;7.38;;
53503;SDS011;39387;50.998;22.340;2022-08-02T01:09:02;8.50;;;7.13;;
53503;SDS011;39387;50.998;22.340;2022-08-02T01:11:30;9.15;;;7.55;;
53503;SDS011;39387;50.998;22.340;2022-08-02T01:13:58;10.10;;;7.70;;
53503;SDS011;39387;50.998;22.340;2022-08-02T01:16:29;10.68;;;7.35;;
53503;SDS011;39387;50.998;22.340;2022-08-02T01:18:58;10.65;;;8.00;;
53503;SDS011;39387;50.998;22.340;2022-08-02T01:21:37;10.25;;;7.63;;
53503;SDS011;39387;50.998;22.340;2022-08-02T01:24:16;9.48;;;7.93;;
53503;SDS011;39387;50.998;22.340;2022-08-02T01:26:48;9.77;;;8.20;;
53503;SDS011;39387;50.998;22.340;2022-08-02T01:29:19;12.10;;;8.40;;
53503;SDS011;39387;50.998;22.340;2022-08-02T01:31:49;11.52;;;7.75;;
53503;SDS011;39387;50.998;22.340;2022-08-02T01:34:23;9.00;;;7.88;;
53503;SDS011;39387;50.998;22.340;2022-08-02T01:36:56;10.00;;;7.88;;
53503;SDS011;39387;50.998;22.340;2022-08-02T01:39:25;9.63;;;7.57;;
53503;SDS011;39387;50.998;22.340;2022-08-02T01:41:53;9.98;;;7.85;;
53503;SDS011;39387;50.998;22.340;2022-08-02T01:44:23;10.25;;;8.10;;
53503;SDS011;39387;50.998;22.340;2022-08-02T01:46:51;10.38;;;7.82;;
53503;SDS011;39387;50.998;22.340;2022-08-02T01:49:19;10.90;;;8.15;;
53503;SDS011;39387;50.998;22.340;2022-08-02T01:51:47;8.10;;;7.05;;
53503;SDS011;39387;50.998;22.340;2022-08-02T01:54:33;11.02;;;7.68;;
53503;SDS011;39387;50.998;22.340;2022-08-02T01:57:01;9.00;;;7.93;;
53503;SDS011;39387;50.998;22.340;2022-08-02T01:59:31;9.82;;;7.90;;
53503;SDS011;39387;50.998;22.340;2022-08-02T02:01:59;11.60;;;8.10;;
53503;SDS011;39387;50.998;22.340;2022-08-02T02:04:28;10.80;;;7.53;;
53503;SDS011;39387;50.998;22.340;2022-08-02T02:06:57;9.70;;;8.05;;
53503;SDS011;39387;50.998;22.340;2022-08-02T02:09:25;8.50;;;7.30;;
53503;SDS011;39387;50.998;22.340;2022-08-02T02:11:54;9.48;;;7.28;;
53503;SDS011;39387;50.998;22.340;2022-08-02T02:14:22;9.98;;;7.80;;
53503;SDS011;39387;50.998;22.340;2022-08-02T02:16:51;9.65;;;7.60;;
53503;SDS011;39387;50.998;22.340;2022-08-02T02:19:19;8.88;;;7.63;;
53503;SDS011;39387;50.998;22.340;2022-08-02T02:21:48;10.25;;;7.28;;
53503;SDS011;39387;50.998;22.340;2022-08-02T02:24:15;8.60;;;7.43;;
53503;SDS011;39387;50.998;22.340;2022-08-02T02:26:43;7.70;;;6.90;;
53503;SDS011;39387;50.998;22.340;2022-08-02T02:29:11;10.35;;;7.88;;
53503;SDS011;39387;50.998;22.340;2022-08-02T02:31:41;8.10;;;7.28;;
53503;SDS011;39387;50.998;22.340;2022-08-02T02:34:12;9.27;;;7.72;;
53503;SDS011;39387;50.998;22.340;2022-08-02T02:36:44;9.07;;;7.25;;
53503;SDS011;39387;50.998;22.340;2022-08-02T02:39:13;8.82;;;7.20;;
53503;SDS011;39387;50.998;22.340;2022-08-02T02:41:42;8.60;;;7.22;;
53503;SDS011;39387;50.998;22.340;2022-08-02T02:44:12;8.80;;;7.38;;
53503;SDS011;39387;50.998;22.340;2022-08-02T02:46:42;9.30;;;7.90;;
53503;SDS011;39387;50.998;22.340;2022-08-02T02:49:11;9.32;;;7.43;;
53503;SDS011;39387;50.998;22.340;2022-08-02T02:51:39;7.78;;;6.97;;
53503;SDS011;39387;50.998;22.340;2022-08-02T02:54:06;9.10;;;7.43;;
53503;SDS011;39387;50.998;22.340;2022-08-02T02:56:35;8.98;;;7.57;;
53503;SDS011;39387;50.998;22.340;2022-08-02T02:59:03;7.85;;;6.93;;
53503;SDS011;39387;50.998;22.340;2022-08-02T03:01:30;7.97;;;7.05;;
53503;SDS011;39387;50.998;22.340;2022-08-02T03:03:59;8.02;;;7.22;;
53503;SDS011;39387;50.998;22.340;2022-08-02T03:06:29;8.90;;;7.55;;
53503;SDS011;39387;50.998;22.340;2022-08-02T03:08:56;7.70;;;6.88;;
53503;SDS011;39387;50.998;22.340;2022-08-02T03:11:24;7.97;;;7.13;;
53503;SDS011;39387;50.998;22.340;2022-08-02T03:13:54;8.90;;;7.22;;
53503;SDS011;39387;50.998;22.340;2022-08-02T03:16:22;7.90;;;7.10;;
53503;SDS011;39387;50.998;22.340;2022-08-02T03:18:50;7.80;;;6.63;;
53503;SDS011;39387;50.998;22.340;2022-08-02T03:21:17;8.45;;;7.13;;
53503;SDS011;39387;50.998;22.340;2022-08-02T03:23:46;8.23;;;6.72;;
53503;SDS011;39387;50.998;22.340;2022-08-02T03:26:14;8.55;;;6.85;;
53503;SDS011;39387;50.998;22.340;2022-08-02T03:28:41;9.00;;;6.70;;
53503;SDS011;39387;50.998;22.340;2022-08-02T03:31:09;9.65;;;7.22;;
53503;SDS011;39387;50.998;22.340;2022-08-02T03:33:37;8.63;;;7.20;;
53503;SDS011;39387;50.998;22.340;2022-08-02T03:36:06;7.30;;;6.55;;
53503;SDS011;39387;50.998;22.340;2022-08-02T03:38:37;7.95;;;6.95;;
53503;SDS011;39387;50.998;22.340;2022-08-02T03:41:06;9.07;;;6.88;;
53503;SDS011;39387;50.998;22.340;2022-08-02T03:43:35;9.07;;;6.60;;
53503;SDS011;39387;50.998;22.340;2022-08-02T03:46:03;8.23;;;6.80;;
53503;SDS011;39387;50.998;22.340;2022-08-02T03:48:30;8.35;;;7.10;;
53503;SDS011;39387;50.998;22.340;2022-08-02T03:50:59;8.95;;;6.55;;
53503;SDS011;39387;50.998;22.340;2022-08-02T03:53:26;8.05;;;7.25;;
53503;SDS011;39387;50.998;22.340;2022-08-02T03:55:54;8.13;;;6.68;;
53503;SDS011;39387;50.998;22.340;2022-08-02T03:58:23;8.27;;;7.45;;
53503;SDS011;39387;50.998;22.340;2022-08-02T04:00:50;9.65;;;7.63;;
53503;SDS011;39387;50.998;22.340;2022-08-02T04:03:18;9.38;;;7.40;;
53503;SDS011;39387;50.998;22.340;2022-08-02T04:05:46;8.68;;;7.50;;
53503;SDS011;39387;50.998;22.340;2022-08-02T04:08:13;7.72;;;6.93;;
53503;SDS011;39387;50.998;22.340;2022-08-02T04:10:41;7.85;;;6.75;;
53503;SDS011;39387;50.998;22.340;2022-08-02T04:13:28;7.63;;;6.90;;
53503;SDS011;39387;50.998;22.340;2022-08-02T04:16:01;8.30;;;7.30;;
53503;SDS011;39387;50.998;22.340;2022-08-02T04:18:33;7.60;;;6.80;;
53503;SDS011;39387;50.998;22.340;2022-08-02T04:21:04;7.25;;;6.55;;
53503;SDS011;39387;50.998;22.340;2022-08-02T04:23:32;6.78;;;6.10;;
53503;SDS011;39387;50.998;22.340;2022-08-02T04:26:00;6.85;;;6.25;;
53503;SDS011;39387;50.998;22.340;2022-08-02T04:28:31;6.93;;;6.28;;
53503;SDS011;39387;50.998;22.340;2022-08-02T04:30:59;6.68;;;5.97;;
53503;SDS011;39387;50.998;22.340;2022-08-02T04:33:27;6.28;;;5.68;;
53503;SDS011;39387;50.998;22.340;2022-08-02T04:35:54;6.45;;;5.85;;
53503;SDS011;39387;50.998;22.340;2022-08-02T04:38:23;7.15;;;5.57;;
53503;SDS011;39387;50.998;22.340;2022-08-02T04:40:51;6.90;;;6.18;;
53503;SDS011;39387;50.998;22.340;2022-08-02T04:43:20;6.43;;;5.82;;
53503;SDS011;39387;50.998;22.340;2022-08-02T04:45:50;6.53;;;5.85;;
53503;SDS011;39387;50.998;22.340;2022-08-02T04:50:45;6.35;;;5.75;;
53503;SDS011;39387;50.998;22.340;2022-08-02T04:53:13;6.47;;;5.88;;
53503;SDS011;39387;50.998;22.340;2022-08-02T04:55:40;6.22;;;5.63;;
53503;SDS011;39387;50.998;22.340;2022-08-02T04:58:08;5.70;;;5.20;;
53503;SDS011;39387;50.998;22.340;2022-08-02T05:00:35;5.93;;;5.43;;
53503;SDS011;39387;50.998;22.340;2022-08-02T05:03:04;5.93;;;5.32;;
53503;SDS011;39387;50.998;22.340;2022-08-02T05:05:31;5.60;;;5.10;;
53503;SDS011;39387;50.998;22.340;2022-08-02T05:08:00;5.43;;;4.93;;
53503;SDS011;39387;50.998;22.340;2022-08-02T05:10:28;5.32;;;4.82;;
53503;SDS011;39387;50.998;22.340;2022-08-02T05:12:55;6.30;;;5.30;;
53503;SDS011;39387;50.998;22.340;2022-08-02T05:15:22;5.85;;;5.25;;
53503;SDS011;39387;50.998;22.340;2022-08-02T05:17:50;5.10;;;4.70;;
53503;SDS011;39387;50.998;22.340;2022-08-02T05:20:18;4.80;;;4.32;;
53503;SDS011;39387;50.998;22.340;2022-08-02T05:22:46;5.68;;;5.18;;
53503;SDS011;39387;50.998;22.340;2022-08-02T05:25:13;6.15;;;4.68;;
53503;SDS011;39387;50.998;22.340;2022-08-02T05:27:41;5.75;;;5.20;;
53503;SDS011;39387;50.998;22.340;2022-08-02T05:30:09;5.70;;;5.10;;
53503;SDS011;39387;50.998;22.340;2022-08-02T05:32:43;4.60;;;4.20;;
53503;SDS011;39387;50.998;22.340;2022-08-02T05:35:12;4.28;;;3.95;;
53503;SDS011;39387;50.998;22.340;2022-08-02T05:37:40;4.03;;;3.67;;
53503;SDS011;39387;50.998;22.340;2022-08-02T05:40:08;3.40;;;3.10;;
53503;SDS011;39387;50.998;22.340;2022-08-02T05:42:36;4.63;;;3.28;;
53503;SDS011;39387;50.998;22.340;2022-08-02T05:45:04;3.72;;;3.40;;
53503;SDS011;39387;50.998;22.340;2022-08-02T05:47:31;3.55;;;3.25;;
53503;SDS011;39387;50.998;22.340;2022-08-02T05:49:59;4.00;;;3.10;;
53503;SDS011;39387;50.998;22.340;2022-08-02T05:52:29;3.72;;;3.42;;
53503;SDS011;39387;50.998;22.340;2022-08-02T05:55:07;3.05;;;2.85;;
53503;SDS011;39387;50.998;22.340;2022-08-02T05:57:40;2.92;;;2.65;;
53503;SDS011;39387;50.998;22.340;2022-08-02T06:00:14;3.70;;;3.40;;
53503;SDS011;39387;50.998;22.340;2022-08-02T06:02:43;3.80;;;3.50;;
53503;SDS011;39387;50.998;22.340;2022-08-02T06:05:25;3.28;;;2.97;;
53503;SDS011;39387;50.998;22.340;2022-08-02T06:07:53;3.40;;;3.10;;
53503;SDS011;39387;50.998;22.340;2022-08-02T06:10:23;3.35;;;2.92;;
53503;SDS011;39387;50.998;22.340;2022-08-02T06:12:53;3.35;;;3.05;;
53503;SDS011;39387;50.998;22.340;2022-08-02T06:15:27;3.20;;;3.00;;
53503;SDS011;39387;50.998;22.340;2022-08-02T06:17:54;2.67;;;2.47;;
53503;SDS011;39387;50.998;22.340;2022-08-02T06:20:23;3.50;;;2.50;;
53503;SDS011;39387;50.998;22.340;2022-08-02T06:22:51;2.90;;;2.70;;
53503;SDS011;39387;50.998;22.340;2022-08-02T06:25:19;2.97;;;2.60;;
53503;SDS011;39387;50.998;22.340;2022-08-02T06:27:48;2.70;;;2.50;;
53503;SDS011;39387;50.998;22.340;2022-08-02T06:30:16;3.95;;;2.85;;
53503;SDS011;39387;50.998;22.340;2022-08-02T06:32:44;2.75;;;2.55;;
53503;SDS011;39387;50.998;22.340;2022-08-02T06:35:11;3.60;;;2.58;;
53503;SDS011;39387;50.998;22.340;2022-08-02T06:37:40;2.75;;;2.55;;
53503;SDS011;39387;50.998;22.340;2022-08-02T06:40:11;3.42;;;2.60;;
53503;SDS011;39387;50.998;22.340;2022-08-02T06:42:46;2.50;;;2.30;;
53503;SDS011;39387;50.998;22.340;2022-08-02T06:45:17;2.75;;;2.55;;
53503;SDS011;39387;50.998;22.340;2022-08-02T06:47:45;2.50;;;2.30;;
53503;SDS011;39387;50.998;22.340;2022-08-02T06:50:12;2.42;;;2.15;;
53503;SDS011;39387;50.998;22.340;2022-08-02T06:52:39;2.65;;;2.45;;
53503;SDS011;39387;50.998;22.340;2022-08-02T06:55:07;3.38;;;2.58;;
53503;SDS011;39387;50.998;22.340;2022-08-02T06:57:35;2.95;;;2.42;;
53503;SDS011;39387;50.998;22.340;2022-08-02T07:00:04;2.65;;;2.45;;
53503;SDS011;39387;50.998;22.340;2022-08-02T07:02:33;2.50;;;2.30;;
53503;SDS011;39387;50.998;22.340;2022-08-02T07:05:01;2.42;;;2.22;;
53503;SDS011;39387;50.998;22.340;2022-08-02T07:07:29;2.70;;;2.50;;
53503;SDS011;39387;50.998;22.340;2022-08-02T07:09:56;3.42;;;2.45;;
53503;SDS011;39387;50.998;22.340;2022-08-02T07:12:23;3.58;;;2.20;;
53503;SDS011;39387;50.998;22.340;2022-08-02T07:14:51;2.65;;;2.45;;
53503;SDS011;39387;50.998;22.340;2022-08-02T07:17:20;2.58;;;2.38;;
53503;SDS011;39387;50.998;22.340;2022-08-02T07:19:47;2.90;;;2.70;;
53503;SDS011;39387;50.998;22.340;2022-08-02T07:22:14;2.83;;;2.58;;
53503;SDS011;39387;50.998;22.340;2022-08-02T07:24:43;3.00;;;2.70;;
53503;SDS011;39387;50.998;22.340;2022-08-02T07:27:10;4.00;;;2.55;;
53503;SDS011;39387;50.998;22.340;2022-08-02T07:29:37;2.90;;;2.70;;
53503;SDS011;39387;50.998;22.340;2022-08-02T07:32:05;3.30;;;2.40;;
53503;SDS011;39387;50.998;22.340;2022-08-02T07:34:33;3.03;;;2.67;;
53503;SDS011;39387;50.998;22.340;2022-08-02T07:37:01;3.17;;;2.88;;
53503;SDS011;39387;50.998;22.340;2022-08-02T07:39:28;3.58;;;2.25;;
53503;SDS011;39387;50.998;22.340;2022-08-02T07:41:55;2.90;;;2.60;;
53503;SDS011;39387;50.998;22.340;2022-08-02T07:44:23;2.70;;;2.50;;
53503;SDS011;39387;50.998;22.340;2022-08-02T07:46:50;2.40;;;2.30;;
53503;SDS011;39387;50.998;22.340;2022-08-02T07:49:17;2.83;;;2.53;;
53503;SDS011;39387;50.998;22.340;2022-08-02T07:51:46;2.63;;;2.42;;
53503;SDS011;39387;50.998;22.340;2022-08-02T07:54:13;2.40;;;2.22;;
53503;SDS011;39387;50.998;22.340;2022-08-02T07:56:41;2.88;;;2.67;;
53503;SDS011;39387;50.998;22.340;2022-08-02T07:59:08;2.60;;;2.30;;
53503;SDS011;39387;50.998;22.340;2022-08-02T08:01:35;2.70;;;2.50;;
53503;SDS011;39387;50.998;22.340;2022-08-02T08:04:02;3.08;;;2.83;;
53503;SDS011;39387;50.998;22.340;2022-08-02T08:06:30;2.92;;;2.72;;
53503;SDS011;39387;50.998;22.340;2022-08-02T08:08:59;2.90;;;2.40;;
53503;SDS011;39387;50.998;22.340;2022-08-02T08:11:26;2.90;;;2.50;;
53503;SDS011;39387;50.998;22.340;2022-08-02T08:13:53;2.80;;;2.60;;
53503;SDS011;39387;50.998;22.340;2022-08-02T08:16:21;4.40;;;2.42;;
53503;SDS011;39387;50.998;22.340;2022-08-02T08:18:50;3.75;;;2.65;;
53503;SDS011;39387;50.998;22.340;2022-08-02T08:21:18;2.60;;;2.40;;
53503;SDS011;39387;50.998;22.340;2022-08-02T08:23:45;2.67;;;2.47;;
53503;SDS011;39387;50.998;22.340;2022-08-02T08:26:14;3.22;;;2.58;;
53503;SDS011;39387;50.998;22.340;2022-08-02T08:28:41;2.72;;;2.53;;
53503;SDS011;39387;50.998;22.340;2022-08-02T08:31:08;2.80;;;2.60;;
53503;SDS011;39387;50.998;22.340;2022-08-02T08:33:36;3.03;;;2.83;;
53503;SDS011;39387;50.998;22.340;2022-08-02T08:36:03;3.10;;;2.50;;
53503;SDS011;39387;50.998;22.340;2022-08-02T08:38:31;2.55;;;2.35;;
53503;SDS011;39387;50.998;22.340;2022-08-02T08:40:58;2.25;;;2.15;;
53503;SDS011;39387;50.998;22.340;2022-08-02T08:43:27;2.70;;;2.50;;
53503;SDS011;39387;50.998;22.340;2022-08-02T08:45:55;2.60;;;2.40;;
53503;SDS011;39387;50.998;22.340;2022-08-02T08:48:22;2.45;;;2.35;;
53503;SDS011;39387;50.998;22.340;2022-08-02T08:50:52;2.67;;;2.47;;
53503;SDS011;39387;50.998;22.340;2022-08-02T08:53:20;3.08;;;2.80;;
53503;SDS011;39387;50.998;22.340;2022-08-02T08:55:47;3.10;;;2.90;;
53503;SDS011;39387;50.998;22.340;2022-08-02T08:58:19;3.00;;;2.50;;
53503;SDS011;39387;50.998;22.340;2022-08-02T09:00:48;2.90;;;2.70;;
53503;SDS011;39387;50.998;22.340;2022-08-02T09:03:15;2.85;;;2.53;;
53503;SDS011;39387;50.998;22.340;2022-08-02T09:05:42;2.97;;;2.67;;
53503;SDS011;39387;50.998;22.340;2022-08-02T09:08:11;2.75;;;2.55;;
53503;SDS011;39387;50.998;22.340;2022-08-02T09:10:39;3.28;;;2.97;;
53503;SDS011;39387;50.998;22.340;2022-08-02T09:13:08;3.15;;;2.88;;
53503;SDS011;39387;50.998;22.340;2022-08-02T09:15:37;2.65;;;2.35;;
53503;SDS011;39387;50.998;22.340;2022-08-02T09:18:07;3.00;;;2.80;;
53503;SDS011;39387;50.998;22.340;2022-08-02T09:20:35;3.40;;;2.97;;
53503;SDS011;39387;50.998;22.340;2022-08-02T09:23:17;2.90;;;2.70;;
53503;SDS011;39387;50.998;22.340;2022-08-02T09:25:56;3.13;;;2.92;;
53503;SDS011;39387;50.998;22.340;2022-08-02T09:28:25;2.80;;;2.60;;
53503;SDS011;39387;50.998;22.340;2022-08-02T09:30:55;3.03;;;2.83;;
53503;SDS011;39387;50.998;22.340;2022-08-02T09:33:25;3.22;;;3.00;;
53503;SDS011;39387;50.998;22.340;2022-08-02T09:35:59;2.78;;;2.58;;
53503;SDS011;39387;50.998;22.340;2022-08-02T09:38:28;2.97;;;2.78;;
53503;SDS011;39387;50.998;22.340;2022-08-02T09:40:55;4.75;;;2.65;;
53503;SDS011;39387;50.998;22.340;2022-08-02T09:43:36;2.53;;;2.30;;
53503;SDS011;39387;50.998;22.340;2022-08-02T09:46:11;2.67;;;2.47;;
53503;SDS011;39387;50.998;22.340;2022-08-02T09:48:50;2.70;;;2.50;;
53503;SDS011;39387;50.998;22.340;2022-08-02T09:51:19;2.63;;;2.42;;
53503;SDS011;39387;50.998;22.340;2022-08-02T09:53:48;3.05;;;2.80;;
53503;SDS011;39387;50.998;22.340;2022-08-02T09:56:17;3.50;;;2.60;;
53503;SDS011;39387;50.998;22.340;2022-08-02T09:58:45;2.70;;;2.50;;
53503;SDS011;39387;50.998;22.340;2022-08-02T10:01:12;2.90;;;2.58;;
53503;SDS011;39387;50.998;22.340;2022-08-02T10:03:54;3.13;;;2.83;;
53503;SDS011;39387;50.998;22.340;2022-08-02T10:06:22;3.33;;;3.03;;
53503;SDS011;39387;50.998;22.340;2022-08-02T10:08:50;3.47;;;3.17;;
53503;SDS011;39387;50.998;22.340;2022-08-02T10:11:19;2.88;;;2.67;;
53503;SDS011;39387;50.998;22.340;2022-08-02T10:13:47;3.00;;;2.60;;
53503;SDS011;39387;50.998;22.340;2022-08-02T10:16:16;2.90;;;2.70;;
53503;SDS011;39387;50.998;22.340;2022-08-02T10:18:48;3.30;;;3.00;;
53503;SDS011;39387;50.998;22.340;2022-08-02T10:21:18;3.42;;;3.10;;
53503;SDS011;39387;50.998;22.340;2022-08-02T10:23:47;3.30;;;3.10;;
53503;SDS011;39387;50.998;22.340;2022-08-02T10:26:16;4.75;;;3.17;;
53503;SDS011;39387;50.998;22.340;2022-08-02T10:28:44;3.35;;;3.05;;
53503;SDS011;39387;50.998;22.340;2022-08-02T10:31:14;3.58;;;3.28;;
53503;SDS011;39387;50.998;22.340;2022-08-02T10:33:45;3.30;;;3.10;;
53503;SDS011;39387;50.998;22.340;2022-08-02T10:36:13;3.63;;;3.33;;
53503;SDS011;39387;50.998;22.340;2022-08-02T10:38:42;3.13;;;2.92;;
53503;SDS011;39387;50.998;22.340;2022-08-02T10:41:10;2.90;;;2.70;;
53503;SDS011;39387;50.998;22.340;2022-08-02T10:43:42;3.45;;;3.15;;
53503;SDS011;39387;50.998;22.340;2022-08-02T10:46:31;3.50;;;2.90;;
53503;SDS011;39387;50.998;22.340;2022-08-02T10:49:06;3.05;;;2.75;;
53503;SDS011;39387;50.998;22.340;2022-08-02T10:54:26;3.33;;;2.92;;
53503;SDS011;39387;50.998;22.340;2022-08-02T10:56:55;3.03;;;2.83;;
53503;SDS011;39387;50.998;22.340;2022-08-02T10:59:24;3.03;;;2.80;;
53503;SDS011;39387;50.998;22.340;2022-08-02T11:01:53;3.17;;;2.88;;
53503;SDS011;39387;50.998;22.340;2022-08-02T11:04:27;3.03;;;2.83;;
53503;SDS011;39387;50.998;22.340;2022-08-02T11:07:05;9.30;;;3.22;;
53503;SDS011;39387;50.998;22.340;2022-08-02T11:09:34;3.30;;;3.00;;
53503;SDS011;39387;50.998;22.340;2022-08-02T11:12:03;2.80;;;2.60;;
53503;SDS011;39387;50.998;22.340;2022-08-02T11:14:33;3.60;;;3.30;;
53503;SDS011;39387;50.998;22.340;2022-08-02T11:17:04;3.05;;;2.85;;
53503;SDS011;39387;50.998;22.340;2022-08-02T11:22:37;3.17;;;2.97;;
53503;SDS011;39387;50.998;22.340;2022-08-02T11:27:58;2.75;;;2.55;;
53503;SDS011;39387;50.998;22.340;2022-08-02T11:30:27;3.00;;;2.80;;
53503;SDS011;39387;50.998;22.340;2022-08-02T11:32:54;3.90;;;3.03;;
53503;SDS011;39387;50.998;22.340;2022-08-02T11:35:22;3.08;;;2.88;;
53503;SDS011;39387;50.998;22.340;2022-08-02T11:37:58;3.40;;;2.78;;
53503;SDS011;39387;50.998;22.340;2022-08-02T11:40:39;3.10;;;2.80;;
53503;SDS011;39387;50.998;22.340;2022-08-02T11:43:17;3.85;;;2.83;;
53503;SDS011;39387;50.998;22.340;2022-08-02T11:45:45;2.97;;;2.78;;
53503;SDS011;39387;50.998;22.340;2022-08-02T11:48:12;3.30;;;3.00;;
53503;SDS011;39387;50.998;22.340;2022-08-02T11:50:40;3.40;;;3.08;;
53503;SDS011;39387;50.998;22.340;2022-08-02T11:53:13;3.63;;;3.33;;
53503;SDS011;39387;50.998;22.340;2022-08-02T11:55:43;3.10;;;2.90;;
53503;SDS011;39387;50.998;22.340;2022-08-02T11:58:10;3.05;;;2.85;;
53503;SDS011;39387;50.998;22.340;2022-08-02T12:00:37;3.20;;;3.00;;
53503;SDS011;39387;50.998;22.340;2022-08-02T12:03:06;3.42;;;3.13;;
53503;SDS011;39387;50.998;22.340;2022-08-02T12:05:33;3.33;;;3.13;;
53503;SDS011;39387;50.998;22.340;2022-08-02T12:08:04;3.03;;;2.70;;
53503;SDS011;39387;50.998;22.340;2022-08-02T12:10:33;3.20;;;3.00;;
53503;SDS011;39387;50.998;22.340;2022-08-02T12:13:01;3.67;;;3.03;;
53503;SDS011;39387;50.998;22.340;2022-08-02T12:15:30;3.75;;;3.45;;
53503;SDS011;39387;50.998;22.340;2022-08-02T12:17:59;3.40;;;3.10;;
53503;SDS011;39387;50.998;22.340;2022-08-02T12:20:44;3.53;;;3.10;;
53503;SDS011;39387;50.998;22.340;2022-08-02T12:23:12;3.30;;;3.00;;
53503;SDS011;39387;50.998;22.340;2022-08-02T12:25:39;2.95;;;2.70;;
53503;SDS011;39387;50.998;22.340;2022-08-02T12:28:15;3.13;;;2.92;;
53503;SDS011;39387;50.998;22.340;2022-08-02T12:30:51;3.38;;;2.90;;
53503;SDS011;39387;50.998;22.340;2022-08-02T12:33:19;3.33;;;3.00;;
53503;SDS011;39387;50.998;22.340;2022-08-02T12:35:48;3.53;;;2.45;;
53503;SDS011;39387;50.998;22.340;2022-08-02T12:38:15;5.50;;;2.42;;
53503;SDS011;39387;50.998;22.340;2022-08-02T12:40:43;1.88;;;1.77;;
53503;SDS011;39387;50.998;22.340;2022-08-02T12:43:20;2.17;;;2.08;;
53503;SDS011;39387;50.998;22.340;2022-08-02T12:45:49;2.25;;;1.80;;
53503;SDS011;39387;50.998;22.340;2022-08-02T12:48:28;2.13;;;2.00;;
53503;SDS011;39387;50.998;22.340;2022-08-02T12:50:56;2.03;;;1.93;;
53503;SDS011;39387;50.998;22.340;2022-08-02T12:53:29;2.00;;;1.80;;
53503;SDS011;39387;50.998;22.340;2022-08-02T12:55:58;1.80;;;1.70;;
53503;SDS011;39387;50.998;22.340;2022-08-02T12:58:29;2.00;;;1.90;;
53503;SDS011;39387;50.998;22.340;2022-08-02T13:00:57;2.95;;;1.90;;
53503;SDS011;39387;50.998;22.340;2022-08-02T13:03:25;3.50;;;2.13;;
53503;SDS011;39387;50.998;22.340;2022-08-02T13:05:52;3.17;;;1.60;;
53503;SDS011;39387;50.998;22.340;2022-08-02T13:08:19;2.40;;;2.17;;
53503;SDS011;39387;50.998;22.340;2022-08-02T13:10:47;2.00;;;1.88;;
53503;SDS011;39387;50.998;22.340;2022-08-02T13:13:14;2.88;;;1.90;;
53503;SDS011;39387;50.998;22.340;2022-08-02T13:15:43;2.45;;;1.90;;
53503;SDS011;39387;50.998;22.340;2022-08-02T13:18:10;2.38;;;2.17;;
53503;SDS011;39387;50.998;22.340;2022-08-02T13:20:37;2.20;;;2.00;;
53503;SDS011;39387;50.998;22.340;2022-08-02T13:23:05;2.05;;;1.70;;
53503;SDS011;39387;50.998;22.340;2022-08-02T13:25:32;2.20;;;2.00;;
53503;SDS011;39387;50.998;22.340;2022-08-02T13:27:59;3.65;;;1.92;;
53503;SDS011;39387;50.998;22.340;2022-08-02T13:30:27;2.67;;;2.05;;
53503;SDS011;39387;50.998;22.340;2022-08-02T13:32:55;2.00;;;1.90;;
53503;SDS011;39387;50.998;22.340;2022-08-02T13:35:23;3.17;;;1.70;;
53503;SDS011;39387;50.998;22.340;2022-08-02T13:37:50;1.90;;;1.80;;
53503;SDS011;39387;50.998;22.340;2022-08-02T13:40:17;1.95;;;1.85;;
53503;SDS011;39387;50.998;22.340;2022-08-02T13:42:44;1.92;;;1.63;;
53503;SDS011;39387;50.998;22.340;2022-08-02T13:45:12;1.63;;;1.52;;
53503;SDS011;39387;50.998;22.340;2022-08-02T13:47:39;1.60;;;1.50;;
53503;SDS011;39387;50.998;22.340;2022-08-02T13:50:08;1.90;;;1.80;;
53503;SDS011;39387;50.998;22.340;2022-08-02T13:52:36;1.85;;;1.55;;
53503;SDS011;39387;50.998;22.340;2022-08-02T13:55:03;1.80;;;1.70;;
53503;SDS011;39387;50.998;22.340;2022-08-02T13:57:31;3.97;;;1.90;;
53503;SDS011;39387;50.998;22.340;2022-08-02T13:59:59;2.80;;;2.35;;
53503;SDS011;39387;50.998;22.340;2022-08-02T14:02:26;2.22;;;2.03;;
53503;SDS011;39387;50.998;22.340;2022-08-02T14:04:53;3.55;;;1.88;;
53503;SDS011;39387;50.998;22.340;2022-08-02T14:07:22;2.00;;;1.90;;
53503;SDS011;39387;50.998;22.340;2022-08-02T14:09:49;1.70;;;1.60;;
53503;SDS011;39387;50.998;22.340;2022-08-02T14:12:17;1.58;;;1.48;;
53503;SDS011;39387;50.998;22.340;2022-08-02T14:14:44;1.90;;;1.80;;
53503;SDS011;39387;50.998;22.340;2022-08-02T14:17:11;1.60;;;1.50;;
53503;SDS011;39387;50.998;22.340;2022-08-02T14:19:39;2.03;;;1.80;;
53503;SDS011;39387;50.998;22.340;2022-08-02T14:22:06;1.60;;;1.50;;
53503;SDS011;39387;50.998;22.340;2022-08-02T14:24:35;1.75;;;1.50;;
53503;SDS011;39387;50.998;22.340;2022-08-02T14:27:02;2.85;;;1.63;;
53503;SDS011;39387;50.998;22.340;2022-08-02T14:29:30;1.90;;;1.80;;
53503;SDS011;39387;50.998;22.340;2022-08-02T14:31:57;2.10;;;1.70;;
53503;SDS011;39387;50.998;22.340;2022-08-02T14:34:24;3.40;;;1.50;;
53503;SDS011;39387;50.998;22.340;2022-08-02T14:36:52;1.80;;;1.52;;
53503;SDS011;39387;50.998;22.340;2022-08-02T14:39:19;1.42;;;1.33;;
53503;SDS011;39387;50.998;22.340;2022-08-02T14:41:48;1.60;;;1.50;;
53503;SDS011;39387;50.998;22.340;2022-08-02T14:44:15;1.60;;;1.50;;
53503;SDS011;39387;50.998;22.340;2022-08-02T14:46:42;1.60;;;1.50;;
53503;SDS011;39387;50.998;22.340;2022-08-02T14:49:10;1.60;;;1.50;;
53503;SDS011;39387;50.998;22.340;2022-08-02T14:51:37;1.60;;;1.50;;
53503;SDS011;39387;50.998;22.340;2022-08-02T14:54:08;2.28;;;1.48;;
53503;SDS011;39387;50.998;22.340;2022-08-02T14:56:36;1.60;;;1.50;;